createdAt,value
2022-12-03T00:00:12.750Z,40.4286
2022-12-03T00:01:09.796Z,41.3571
2022-12-03T00:02:09.903Z,40.4286
2022-12-03T00:03:09.998Z,41
2022-12-03T00:04:09.927Z,39.3571
2022-12-03T00:05:09.913Z,40.6429
2022-12-03T00:06:09.932Z,39.6429
2022-12-03T00:07:09.962Z,39.6429
2022-12-03T00:08:10.115Z,39.6429
2022-12-03T00:09:10.030Z,38.5
2022-12-03T00:10:10.108Z,40
2022-12-03T00:11:10.139Z,40.4286
2022-12-03T00:12:10.177Z,41.6429
2022-12-03T00:13:10.204Z,40.3571
2022-12-03T00:14:10.230Z,40
2022-12-03T00:15:10.264Z,39.5
2022-12-03T00:16:10.435Z,39.6429
2022-12-03T00:17:10.318Z,38.8571
2022-12-03T00:18:10.351Z,40.1429
2022-12-03T00:19:10.388Z,40.7143
2022-12-03T00:20:10.418Z,40.7143
2022-12-03T00:21:10.442Z,39.9286
2022-12-03T00:22:12.662Z,39
2022-12-03T00:23:10.510Z,40.4286
2022-12-03T00:24:10.543Z,40.7143
2022-12-03T00:25:10.582Z,40
2022-12-03T00:26:10.607Z,38.9286
2022-12-03T00:27:10.635Z,38.8571
2022-12-03T00:28:10.670Z,39.4286
2022-12-03T00:29:10.710Z,40
2022-12-03T00:30:10.750Z,40.2143
2022-12-03T00:31:10.780Z,40
2022-12-03T00:32:10.800Z,38.8571
2022-12-03T00:33:10.833Z,39.4286
2022-12-03T00:34:10.861Z,39
2022-12-03T00:35:10.889Z,39.8571
2022-12-03T00:36:10.919Z,38.9286
2022-12-03T00:37:10.963Z,38.3571
2022-12-03T00:38:10.986Z,38.6429
2022-12-03T00:39:11.012Z,39.1429
2022-12-03T00:40:11.040Z,38
2022-12-03T00:41:11.077Z,38.3571
2022-12-03T00:42:11.104Z,39.1429
2022-12-03T00:43:11.138Z,37.9286
2022-12-03T00:44:11.170Z,38.2143
2022-12-03T00:45:11.194Z,38.9286
2022-12-03T00:46:11.257Z,39.9286
2022-12-03T00:47:11.328Z,39
2022-12-03T00:48:11.298Z,37.9286
2022-12-03T00:49:11.333Z,38.4286
2022-12-03T00:50:11.351Z,38.5
2022-12-03T00:51:11.378Z,37.4286
2022-12-03T00:52:11.412Z,38
2022-12-03T00:53:11.445Z,36.5
2022-12-03T00:54:11.480Z,37.2143
2022-12-03T00:55:11.504Z,36.4286
2022-12-03T00:56:11.554Z,37
2022-12-03T00:57:11.578Z,35.9286
2022-12-03T00:58:11.609Z,36.4286
2022-12-03T00:59:11.642Z,36.4286
2022-12-03T01:00:11.666Z,35.7143
2022-12-03T01:01:11.699Z,38.8571
2022-12-03T01:02:11.760Z,37.8571
2022-12-03T01:03:11.758Z,36.8571
2022-12-03T01:04:11.827Z,37.3571
2022-12-03T01:05:11.907Z,39
2022-12-03T01:06:11.851Z,38
2022-12-03T01:07:11.870Z,38.2143
2022-12-03T01:08:11.965Z,36.4286
2022-12-03T01:09:11.938Z,38.2143
2022-12-03T01:10:11.963Z,37.2143
2022-12-03T01:11:12.002Z,37.7143
2022-12-03T01:12:12.066Z,37.5
2022-12-03T01:13:12.062Z,38.2143
2022-12-03T01:14:12.107Z,38
2022-12-03T01:15:12.130Z,38.9286
2022-12-03T01:16:12.206Z,37.8571
2022-12-03T01:17:12.179Z,38.2143
2022-12-03T01:18:12.215Z,38.2143
2022-12-03T01:19:12.449Z,39.4286
2022-12-03T01:20:12.279Z,39.2143
2022-12-03T01:21:12.306Z,37.4286
2022-12-03T01:22:12.339Z,36.9286
2022-12-03T01:23:12.364Z,37.3571
2022-12-03T01:24:12.393Z,35.5
2022-12-03T01:25:12.424Z,38.2143
2022-12-03T01:26:12.454Z,38
2022-12-03T01:27:12.475Z,36.5
2022-12-03T01:28:12.498Z,38.6429
2022-12-03T01:29:12.523Z,38.8571
2022-12-03T01:30:12.553Z,37.7143
2022-12-03T01:31:12.649Z,37.5
2022-12-03T01:32:12.613Z,38.5
2022-12-03T01:33:12.648Z,38.7143
2022-12-03T01:34:12.680Z,37.8571
2022-12-03T01:35:12.715Z,38.1429
2022-12-03T01:36:12.736Z,38.6429
2022-12-03T01:37:12.768Z,40.5
2022-12-03T01:38:12.807Z,39.8571
2022-12-03T01:39:12.831Z,39.2143
2022-12-03T01:40:12.867Z,38.2143
2022-12-03T01:41:12.892Z,36.7143
2022-12-03T01:42:12.922Z,38
2022-12-03T01:43:12.945Z,38.1429
2022-12-03T01:44:12.980Z,38.5
2022-12-03T01:45:12.998Z,37.6429
2022-12-03T01:46:13.054Z,37.9286
2022-12-03T01:47:13.046Z,38
2022-12-03T01:48:13.085Z,36.5
2022-12-03T01:49:13.168Z,37.5
2022-12-03T01:50:13.199Z,38.1429
2022-12-03T01:51:13.225Z,38.9286
2022-12-03T01:52:13.258Z,37.6429
2022-12-03T01:53:13.290Z,36.7143
2022-12-03T01:54:13.311Z,39.1429
2022-12-03T01:55:13.349Z,37.2143
2022-12-03T01:56:13.372Z,37.6429
2022-12-03T01:57:13.409Z,38.9286
2022-12-03T01:58:13.443Z,39.7143
2022-12-03T01:59:13.468Z,39
2022-12-03T02:00:13.496Z,38.6429
2022-12-03T02:01:13.530Z,38.7143
2022-12-03T02:02:13.665Z,39.3571
2022-12-03T02:03:13.581Z,39.3571
2022-12-03T02:04:13.757Z,39.1429
2022-12-03T02:05:13.635Z,38.2143
2022-12-03T02:06:13.673Z,40.3571
2022-12-03T02:07:13.708Z,39.5
2022-12-03T02:08:13.808Z,37.8571
2022-12-03T02:09:13.779Z,39.3571
2022-12-03T02:10:13.817Z,40.6429
2022-12-03T02:11:13.831Z,41.3571
2022-12-03T02:12:13.849Z,40.1429
2022-12-03T02:13:13.875Z,41
2022-12-03T02:14:13.907Z,39.6429
2022-12-03T02:15:13.926Z,40.1429
2022-12-03T02:16:14.045Z,40
2022-12-03T02:17:13.995Z,40.7143
2022-12-03T02:18:14.011Z,43
2022-12-03T02:19:14.045Z,42
2022-12-03T02:20:14.094Z,40.3571
2022-12-03T02:21:14.119Z,39.7143
2022-12-03T02:22:14.143Z,42.6429
2022-12-03T02:23:14.173Z,40.8571
2022-12-03T02:24:14.205Z,41.4286
2022-12-03T02:25:14.234Z,41
2022-12-03T02:26:14.270Z,41
2022-12-03T02:27:14.296Z,41.6429
2022-12-03T02:28:14.318Z,41.6429
2022-12-03T02:29:14.446Z,40.7143
2022-12-03T02:30:14.369Z,42.5
2022-12-03T02:31:14.445Z,39.5
2022-12-03T02:32:14.428Z,40.9286
2022-12-03T02:33:14.468Z,42.5
2022-12-03T02:34:14.497Z,43.2143
2022-12-03T02:35:14.522Z,40.1429
2022-12-03T02:36:14.543Z,39.9286
2022-12-03T02:37:14.568Z,41.6429
2022-12-03T02:38:14.590Z,41.2143
2022-12-03T02:39:14.615Z,40.6429
2022-12-03T02:40:14.657Z,40.7143
2022-12-03T02:41:14.677Z,39
2022-12-03T02:42:14.703Z,41.1429
2022-12-03T02:43:14.736Z,40.7143
2022-12-03T02:44:14.760Z,41.2143
2022-12-03T02:45:14.779Z,40.2143
2022-12-03T02:46:14.896Z,38.5
2022-12-03T02:47:14.855Z,40.1429
2022-12-03T02:48:14.884Z,40
2022-12-03T02:49:14.990Z,39.5
2022-12-03T02:50:15.013Z,38.9286
2022-12-03T02:51:15.053Z,39.8571
2022-12-03T02:52:15.076Z,40.6429
2022-12-03T02:53:15.099Z,41.1429
2022-12-03T02:54:15.138Z,41.2143
2022-12-03T02:55:15.155Z,39
2022-12-03T02:56:15.199Z,39.5
2022-12-03T02:57:15.223Z,38.1429
2022-12-03T02:58:15.252Z,38.8571
2022-12-03T02:59:15.287Z,39.7143
2022-12-03T03:00:15.326Z,40.3571
2022-12-03T03:01:15.507Z,41.2143
2022-12-03T03:02:15.447Z,40.5
2022-12-03T03:03:15.412Z,41.1429
2022-12-03T03:04:15.447Z,39.9286
2022-12-03T03:05:15.484Z,39
2022-12-03T03:06:15.505Z,41.7143
2022-12-03T03:07:15.539Z,40.1429
2022-12-03T03:08:15.638Z,40.5
2022-12-03T03:09:15.594Z,40.6429
2022-12-03T03:10:15.629Z,38.5
2022-12-03T03:11:15.659Z,40.8571
2022-12-03T03:12:15.688Z,40.7143
2022-12-03T03:13:15.729Z,39.2143
2022-12-03T03:14:15.755Z,40.3571
2022-12-03T03:15:15.766Z,40.2143
2022-12-03T03:16:15.816Z,40.1429
2022-12-03T03:17:15.829Z,38.9286
2022-12-03T03:18:15.854Z,40.1429
2022-12-03T03:19:15.897Z,40.2143
2022-12-03T03:20:15.932Z,40.1429
2022-12-03T03:21:15.966Z,41
2022-12-03T03:22:16.006Z,39.1429
2022-12-03T03:23:16.031Z,40.9286
2022-12-03T03:24:16.060Z,40.2143
2022-12-03T03:25:16.082Z,39.7143
2022-12-03T03:26:16.120Z,37.9286
2022-12-03T03:27:16.145Z,37.6429
2022-12-03T03:28:16.182Z,40
2022-12-03T03:29:16.214Z,38.8571
2022-12-03T03:30:16.254Z,41.1429
2022-12-03T03:31:16.370Z,38.9286
2022-12-03T03:32:16.310Z,41.5
2022-12-03T03:33:16.335Z,40.6429
2022-12-03T03:34:16.360Z,40
2022-12-03T03:35:16.399Z,37.9286
2022-12-03T03:36:16.411Z,38.1429
2022-12-03T03:37:16.486Z,38.7143
2022-12-03T03:38:16.468Z,38
2022-12-03T03:39:16.507Z,37.9286
2022-12-03T03:40:16.527Z,38
2022-12-03T03:41:16.559Z,40.5
2022-12-03T03:42:16.609Z,39.8571
2022-12-03T03:43:16.604Z,37.9286
2022-12-03T03:44:16.640Z,41
2022-12-03T03:45:16.669Z,39
2022-12-03T03:46:16.746Z,39.6429
2022-12-03T03:47:16.721Z,39.9286
2022-12-03T03:48:16.767Z,38.4286
2022-12-03T03:49:16.801Z,39.3571
2022-12-03T03:50:16.855Z,39.9286
2022-12-03T03:51:16.876Z,39.6429
2022-12-03T03:52:16.898Z,40.5
2022-12-03T03:53:16.927Z,37.9286
2022-12-03T03:54:16.966Z,38.9286
2022-12-03T03:55:16.993Z,39
2022-12-03T03:56:17.022Z,38.4286
2022-12-03T03:57:17.057Z,39.4286
2022-12-03T03:58:17.092Z,40
2022-12-03T03:59:17.125Z,39.1429
2022-12-03T04:00:17.144Z,38.3571
2022-12-03T04:01:17.249Z,40.4286
2022-12-03T04:02:17.209Z,40.6429
2022-12-03T04:03:17.234Z,39.6429
2022-12-03T04:04:17.326Z,39
2022-12-03T04:05:17.302Z,39.3571
2022-12-03T04:06:17.322Z,39.9286
2022-12-03T04:07:17.353Z,38.6429
2022-12-03T04:08:17.431Z,40.5
2022-12-03T04:09:17.415Z,37.6429
2022-12-03T04:10:17.434Z,40.9286
2022-12-03T04:11:17.470Z,40.1429
2022-12-03T04:12:17.492Z,39.5
2022-12-03T04:13:17.535Z,38.9286
2022-12-03T04:14:17.564Z,39.2143
2022-12-03T04:15:17.594Z,40.1429
2022-12-03T04:16:17.676Z,40
2022-12-03T04:17:17.655Z,38.5
2022-12-03T04:18:17.686Z,41.1429
2022-12-03T04:19:17.720Z,41
2022-12-03T04:20:17.737Z,39.2143
2022-12-03T04:21:17.784Z,41
2022-12-03T04:22:17.824Z,39.8571
2022-12-03T04:23:17.840Z,39.9286
2022-12-03T04:24:17.879Z,39.6429
2022-12-03T04:25:17.911Z,39.3571
2022-12-03T04:26:17.939Z,40.2143
2022-12-03T04:27:17.978Z,39.8571
2022-12-03T04:28:18.005Z,40.5
2022-12-03T04:29:18.042Z,41
2022-12-03T04:30:18.073Z,40.1429
2022-12-03T04:31:18.174Z,40.2143
2022-12-03T04:32:18.130Z,40.7143
2022-12-03T04:33:18.168Z,41.7143
2022-12-03T04:34:18.195Z,39.1429
2022-12-03T04:35:18.284Z,38.8571
2022-12-03T04:36:18.249Z,41.1429
2022-12-03T04:37:18.263Z,40.1429
2022-12-03T04:38:18.292Z,42.5
2022-12-03T04:39:18.324Z,41.3571
2022-12-03T04:40:18.360Z,41.1429
2022-12-03T04:41:18.404Z,39.5
2022-12-03T04:42:18.411Z,40.8571
2022-12-03T04:43:18.452Z,41.2143
2022-12-03T04:44:18.470Z,41.3571
2022-12-03T04:45:18.514Z,40.7143
2022-12-03T04:46:18.590Z,40
2022-12-03T04:47:18.564Z,41
2022-12-03T04:48:18.604Z,40.4286
2022-12-03T04:49:18.617Z,39.8571
2022-12-03T04:50:18.638Z,41.3571
2022-12-03T04:51:18.676Z,42.1429
2022-12-03T04:52:18.707Z,39.6429
2022-12-03T04:53:18.733Z,41.7143
2022-12-03T04:54:18.779Z,40.4286
2022-12-03T04:55:18.810Z,41.8571
2022-12-03T04:56:18.838Z,40.6429
2022-12-03T04:57:18.871Z,41.1429
2022-12-03T04:58:18.905Z,41.4286
2022-12-03T04:59:18.927Z,41.6429
2022-12-03T05:00:18.961Z,41.4286
2022-12-03T05:01:19.079Z,39.8571
2022-12-03T05:02:19.081Z,40.9286
2022-12-03T05:03:19.063Z,40.5
2022-12-03T05:04:19.095Z,39.9286
2022-12-03T05:05:19.127Z,40
2022-12-03T05:06:19.148Z,39.9286
2022-12-03T05:07:19.177Z,40
2022-12-03T05:08:19.280Z,39.5
2022-12-03T05:09:19.245Z,39.8571
2022-12-03T05:10:19.271Z,42.2143
2022-12-03T05:11:19.296Z,38.9286
2022-12-03T05:12:19.323Z,39.4286
2022-12-03T05:13:19.354Z,39.7143
2022-12-03T05:14:19.373Z,39.5
2022-12-03T05:15:19.407Z,39.8571
2022-12-03T05:16:19.478Z,40.2143
2022-12-03T05:17:19.471Z,38.8571
2022-12-03T05:18:19.497Z,39.2143
2022-12-03T05:19:19.530Z,40.1429
2022-12-03T05:20:19.564Z,40.7143
2022-12-03T05:21:19.598Z,42.6429
2022-12-03T05:22:19.625Z,42.3571
2022-12-03T05:23:19.648Z,39.6429
2022-12-03T05:24:19.694Z,41
2022-12-03T05:25:19.719Z,40.1429
2022-12-03T05:26:19.759Z,40.8571
2022-12-03T05:27:23.680Z,40.8571
2022-12-03T05:28:19.816Z,39.7143
2022-12-03T05:29:19.851Z,41.8571
2022-12-03T05:30:19.879Z,40.1429
2022-12-03T05:31:20.007Z,40.5
2022-12-03T05:32:19.928Z,38.8571
2022-12-03T05:33:19.960Z,39.4286
2022-12-03T05:34:19.989Z,40.6429
2022-12-03T05:35:20.009Z,40.1429
2022-12-03T05:36:20.041Z,37.7143
2022-12-03T05:37:20.077Z,41.4286
2022-12-03T05:38:20.105Z,39.3571
2022-12-03T05:39:20.136Z,39.8571
2022-12-03T05:40:20.178Z,39.3571
2022-12-03T05:41:20.209Z,39
2022-12-03T05:42:20.247Z,39.6429
2022-12-03T05:43:20.280Z,39.3571
2022-12-03T05:44:20.849Z,38.2143
2022-12-03T05:45:20.343Z,39.5
2022-12-03T05:46:20.426Z,40
2022-12-03T05:47:20.413Z,38.2143
2022-12-03T05:48:20.438Z,38.8571
2022-12-03T05:49:20.475Z,38.8571
2022-12-03T05:50:20.501Z,39.1429
2022-12-03T05:51:20.539Z,38.7143
2022-12-03T05:52:20.565Z,41
2022-12-03T05:53:20.594Z,36.8571
2022-12-03T05:54:20.625Z,40.7143
2022-12-03T05:55:20.670Z,40
2022-12-03T05:56:20.696Z,39
2022-12-03T05:57:20.728Z,40.2143
2022-12-03T05:58:20.749Z,39.5
2022-12-03T05:59:20.777Z,40.7143
2022-12-03T06:00:20.815Z,40
2022-12-03T06:01:20.837Z,41.5
2022-12-03T06:02:21.069Z,38.8571
2022-12-03T06:03:21.102Z,40.4286
2022-12-03T06:04:20.942Z,40.5
2022-12-03T06:05:20.986Z,41.5
2022-12-03T06:06:21.012Z,39.6429
2022-12-03T06:07:21.043Z,40.2143
2022-12-03T06:08:21.073Z,39.4286
2022-12-03T06:09:21.096Z,39.8571
2022-12-03T06:10:21.132Z,41.8571
2022-12-03T06:11:21.147Z,38.9286
2022-12-03T06:12:21.186Z,41
2022-12-03T06:13:21.217Z,40.4286
2022-12-03T06:14:21.241Z,38.8571
2022-12-03T06:15:21.278Z,41.4286
2022-12-03T06:16:21.365Z,42.1429
2022-12-03T06:17:21.327Z,40.7143
2022-12-03T06:18:21.363Z,40.8571
2022-12-03T06:19:21.392Z,41.2143
2022-12-03T06:20:21.429Z,41.9286
2022-12-03T06:21:21.456Z,41.5
2022-12-03T06:22:21.496Z,41.3571
2022-12-03T06:23:21.529Z,42.5
2022-12-03T06:24:21.565Z,40.6429
2022-12-03T06:25:21.613Z,42.3571
2022-12-03T06:26:21.621Z,42.2143
2022-12-03T06:27:21.648Z,42.5
2022-12-03T06:28:21.682Z,42.5
2022-12-03T06:29:21.721Z,43
2022-12-03T06:30:21.747Z,41.9286
2022-12-03T06:31:21.857Z,40.8571
2022-12-03T06:32:21.811Z,44
2022-12-03T06:33:21.844Z,42.7143
2022-12-03T06:34:21.869Z,41.6429
2022-12-03T06:35:21.910Z,42.2143
2022-12-03T06:36:23.415Z,42.8571
2022-12-03T06:37:21.959Z,42.3571
2022-12-03T06:38:21.986Z,40.7143
2022-12-03T06:39:22.026Z,42.3571
2022-12-03T06:40:22.037Z,41.6429
2022-12-03T06:41:22.078Z,42.5
2022-12-03T06:42:22.102Z,44.2143
2022-12-03T06:43:22.133Z,42.8571
2022-12-03T06:44:22.162Z,43.6429
2022-12-03T06:45:22.186Z,41
2022-12-03T06:46:22.302Z,42.4286
2022-12-03T06:47:22.248Z,41.8571
2022-12-03T06:48:22.278Z,42.7143
2022-12-03T06:49:22.313Z,42
2022-12-03T06:50:22.349Z,44
2022-12-03T06:51:22.382Z,41.4286
2022-12-03T06:52:22.420Z,41.5
2022-12-03T06:53:22.448Z,42.5
2022-12-03T06:54:22.471Z,43.1429
2022-12-03T06:55:22.512Z,42.6429
2022-12-03T06:56:22.791Z,43.8571
2022-12-03T06:57:22.569Z,42.4286
2022-12-03T06:58:22.601Z,44.1429
2022-12-03T06:59:22.633Z,42
2022-12-03T07:00:22.646Z,41.9286
2022-12-03T07:01:22.714Z,42.4286
2022-12-03T07:02:22.974Z,42.5
2022-12-03T07:03:22.856Z,41.6429
2022-12-03T07:04:22.787Z,41.1429
2022-12-03T07:05:22.823Z,43.2143
2022-12-03T07:06:22.846Z,42.4286
2022-12-03T07:07:22.867Z,42.4286
2022-12-03T07:08:22.894Z,42.9286
2022-12-03T07:09:22.925Z,42.5
2022-12-03T07:10:22.963Z,41.2143
2022-12-03T07:11:22.995Z,41.8571
2022-12-03T07:12:23.036Z,42.7143
2022-12-03T07:13:23.064Z,42.7143
2022-12-03T07:14:23.102Z,42.9286
2022-12-03T07:15:23.134Z,41.2143
2022-12-03T07:16:23.197Z,41.5
2022-12-03T07:17:23.201Z,42.5
2022-12-03T07:18:23.237Z,40.8571
2022-12-03T07:19:26.436Z,41.9286
2022-12-03T07:20:23.285Z,42.4286
2022-12-03T07:21:23.323Z,42.6429
2022-12-03T07:22:23.353Z,40.9286
2022-12-03T07:23:23.376Z,42.5
2022-12-03T07:24:23.415Z,41.1429
2022-12-03T07:25:23.909Z,41.1429
2022-12-03T07:26:23.472Z,41.2143
2022-12-03T07:27:23.502Z,41.5
2022-12-03T07:28:23.533Z,41.9286
2022-12-03T07:29:23.573Z,43.4286
2022-12-03T07:30:23.608Z,43.1429
2022-12-03T07:31:23.669Z,42.5
2022-12-03T07:32:23.655Z,41.9286
2022-12-03T07:33:23.687Z,43
2022-12-03T07:34:23.719Z,42.4286
2022-12-03T07:35:23.754Z,43.6429
2022-12-03T07:36:23.777Z,43.8571
2022-12-03T07:37:23.820Z,42.5
2022-12-03T07:38:23.844Z,42.7143
2022-12-03T07:39:23.873Z,40.7143
2022-12-03T07:40:23.905Z,41.6429
2022-12-03T07:41:23.930Z,43.4286
2022-12-03T07:42:23.966Z,40.9286
2022-12-03T07:43:23.981Z,44
2022-12-03T07:44:24.020Z,41.8571
2022-12-03T07:45:24.046Z,41.8571
2022-12-03T07:46:24.099Z,41.6429
2022-12-03T07:47:24.091Z,43.5
2022-12-03T07:48:24.126Z,43.1429
2022-12-03T07:49:24.159Z,43
2022-12-03T07:50:24.184Z,43.1429
2022-12-03T07:51:27.477Z,42.8571
2022-12-03T07:52:24.250Z,41.9286
2022-12-03T07:53:24.293Z,40.8571
2022-12-03T07:54:24.315Z,41.2143
2022-12-03T07:55:24.349Z,41.8571
2022-12-03T07:56:24.373Z,42.7143
2022-12-03T07:57:24.400Z,40.9286
2022-12-03T07:58:24.438Z,43.7143
2022-12-03T07:59:24.464Z,43.8571
2022-12-03T08:00:24.496Z,41.9286
2022-12-03T08:01:24.563Z,42
2022-12-03T08:02:24.628Z,41.8571
2022-12-03T08:03:24.614Z,43.9286
2022-12-03T08:04:24.647Z,41.3571
2022-12-03T08:05:24.672Z,42.8571
2022-12-03T08:06:24.713Z,42.2143
2022-12-03T08:07:24.845Z,43.4286
2022-12-03T08:08:24.776Z,42.6429
2022-12-03T08:09:24.809Z,40.6429
2022-12-03T08:10:24.839Z,42
2022-12-03T08:11:24.878Z,39.6429
2022-12-03T08:12:24.906Z,42.7143
2022-12-03T08:13:24.938Z,42.4286
2022-12-03T08:14:24.953Z,40.3571
2022-12-03T08:15:24.985Z,42.2143
2022-12-03T08:16:25.085Z,40.6429
2022-12-03T08:17:25.057Z,42.2143
2022-12-03T08:18:25.142Z,42.9286
2022-12-03T08:19:25.135Z,41.4286
2022-12-03T08:20:25.236Z,41.8571
2022-12-03T08:21:25.195Z,42.1429
2022-12-03T08:22:25.230Z,42.1429
2022-12-03T08:23:25.266Z,42.4286
2022-12-03T08:24:25.286Z,42.5
2022-12-03T08:25:25.319Z,42.7143
2022-12-03T08:26:25.341Z,43.4286
2022-12-03T08:27:25.379Z,42.2143
2022-12-03T08:28:25.400Z,43.4286
2022-12-03T08:29:25.423Z,43.5
2022-12-03T08:30:25.468Z,43.1429
2022-12-03T08:31:30.912Z,41.2143
2022-12-03T08:32:25.515Z,43.1429
2022-12-03T08:33:25.538Z,44.8571
2022-12-03T08:34:25.570Z,42.8571
2022-12-03T08:35:25.601Z,42
2022-12-03T08:36:25.639Z,42.1429
2022-12-03T08:37:25.733Z,42.1429
2022-12-03T08:38:25.706Z,42
2022-12-03T08:39:25.737Z,42.9286
2022-12-03T08:40:25.768Z,42.5
2022-12-03T08:41:25.804Z,42.5
2022-12-03T08:42:25.829Z,41.8571
2022-12-03T08:43:25.870Z,43.1429
2022-12-03T08:44:25.900Z,43.3571
2022-12-03T08:45:26.003Z,41.1429
2022-12-03T08:46:26.033Z,42
2022-12-03T08:47:26.015Z,41.7143
2022-12-03T08:48:26.037Z,43.5
2022-12-03T08:49:26.066Z,42.9286
2022-12-03T08:50:26.107Z,42.9286
2022-12-03T08:51:26.128Z,42.2143
2022-12-03T08:52:26.163Z,42.8571
2022-12-03T08:53:26.198Z,43.5
2022-12-03T08:54:26.246Z,42.9286
2022-12-03T08:55:26.271Z,43
2022-12-03T08:56:26.292Z,42
2022-12-03T08:57:26.318Z,43.4286
2022-12-03T08:58:26.350Z,45.3571
2022-12-03T08:59:26.375Z,41.1429
2022-12-03T09:00:26.404Z,42.5
2022-12-03T09:01:26.540Z,43.7143
2022-12-03T09:02:26.460Z,41.8571
2022-12-03T09:03:26.499Z,42
2022-12-03T09:04:26.617Z,43.7143
2022-12-03T09:05:26.548Z,43.4286
2022-12-03T09:06:26.582Z,44.5
2022-12-03T09:07:26.613Z,43.7143
2022-12-03T09:08:26.647Z,42.6429
2022-12-03T09:09:26.669Z,43.3571
2022-12-03T09:10:26.705Z,43.1429
2022-12-03T09:11:26.739Z,42.8571
2022-12-03T09:12:26.758Z,43.3571
2022-12-03T09:13:26.787Z,43.6429
2022-12-03T09:14:26.823Z,43.4286
2022-12-03T09:15:26.855Z,44.3571
2022-12-03T09:16:26.994Z,41.9286
2022-12-03T09:17:26.897Z,42.2143
2022-12-03T09:18:26.935Z,43.1429
2022-12-03T09:19:26.977Z,45
2022-12-03T09:20:26.995Z,43.6429
2022-12-03T09:21:27.031Z,42.9286
2022-12-03T09:22:27.062Z,42.4286
2022-12-03T09:23:27.090Z,44.7143
2022-12-03T09:24:27.121Z,42.6429
2022-12-03T09:25:27.160Z,42.5
2022-12-03T09:26:27.178Z,41.1429
2022-12-03T09:27:27.215Z,42.9286
2022-12-03T09:28:27.251Z,43.5
2022-12-03T09:29:27.288Z,43.5
2022-12-03T09:30:27.317Z,44.7143
2022-12-03T09:31:27.384Z,42.5
2022-12-03T09:32:27.367Z,42.1429
2022-12-03T09:33:27.387Z,42.1429
2022-12-03T09:34:27.428Z,42.3571
2022-12-03T09:35:27.461Z,41.9286
2022-12-03T09:36:27.492Z,42.1429
2022-12-03T09:37:27.514Z,43
2022-12-03T09:38:27.538Z,43
2022-12-03T09:39:27.568Z,40.8571
2022-12-03T09:40:27.592Z,41.5
2022-12-03T09:41:27.635Z,42.3571
2022-12-03T09:42:27.672Z,42
2022-12-03T09:43:49.458Z,43.3571
2022-12-03T09:44:27.737Z,41.8571
2022-12-03T09:45:27.757Z,42.1429
2022-12-03T09:46:27.921Z,43.6429
2022-12-03T09:47:27.831Z,43.7143
2022-12-03T09:48:27.856Z,43
2022-12-03T09:49:27.878Z,42.7143
2022-12-03T09:50:27.912Z,42.4286
2022-12-03T09:51:27.949Z,41
2022-12-03T09:52:27.970Z,42.3571
2022-12-03T09:53:28.004Z,42.3571
2022-12-03T09:54:28.026Z,42.9286
2022-12-03T09:55:28.065Z,43.6429
2022-12-03T09:56:28.087Z,42.4286
2022-12-03T09:57:28.119Z,42.9286
2022-12-03T09:58:33.135Z,43
2022-12-03T09:59:28.167Z,43.4286
2022-12-03T10:00:28.197Z,42.8571
2022-12-03T10:01:30.457Z,40.3571
2022-12-03T10:02:28.254Z,42.2143
2022-12-03T10:03:30.007Z,42.3571
2022-12-03T10:04:28.387Z,42.3571
2022-12-03T10:05:28.341Z,43.4286
2022-12-03T10:06:28.376Z,41.7143
2022-12-03T10:07:28.435Z,39.8571
2022-12-03T10:08:31.968Z,42
2022-12-03T10:09:28.520Z,40.9286
2022-12-03T10:10:28.518Z,41.2143
2022-12-03T10:11:28.543Z,43.4286
2022-12-03T10:12:28.572Z,41.9286
2022-12-03T10:13:28.605Z,42.2143
2022-12-03T10:14:28.634Z,42.5
2022-12-03T10:15:28.671Z,40.7143
2022-12-03T10:16:28.880Z,40.3571
2022-12-03T10:17:28.727Z,42.6429
2022-12-03T10:18:30.832Z,42.4286
2022-12-03T10:19:28.798Z,42.4286
2022-12-03T10:20:28.827Z,41.7143
2022-12-03T10:21:28.953Z,41.4286
2022-12-03T10:22:28.974Z,43.5
2022-12-03T10:23:29.014Z,43.2143
2022-12-03T10:24:29.055Z,43
2022-12-03T10:25:29.082Z,42.5
2022-12-03T10:26:29.098Z,42.6429
2022-12-03T10:27:29.140Z,43
2022-12-03T10:28:29.165Z,43
2022-12-03T10:29:33.698Z,42.2143
2022-12-03T10:30:29.302Z,41
2022-12-03T10:31:29.334Z,42.2143
2022-12-03T10:32:29.287Z,42.1429
2022-12-03T10:33:29.313Z,39.7143
2022-12-03T10:34:29.359Z,41.6429
2022-12-03T10:35:29.387Z,40.7143
2022-12-03T10:36:29.403Z,41
2022-12-03T10:37:29.445Z,42.6429
2022-12-03T10:38:29.466Z,41.8571
2022-12-03T10:39:29.499Z,40.7143
2022-12-03T10:40:29.520Z,40.1429
2022-12-03T10:41:29.558Z,41
2022-12-03T10:42:29.595Z,42.2143
2022-12-03T10:43:29.615Z,41.5
2022-12-03T10:44:29.653Z,39.1429
2022-12-03T10:45:29.677Z,39.7143
2022-12-03T10:46:29.938Z,40.6429
2022-12-03T10:47:29.909Z,42.2143
2022-12-03T10:48:29.765Z,41.6429
2022-12-03T10:49:29.786Z,41.1429
2022-12-03T10:50:29.815Z,40.5
2022-12-03T10:51:29.838Z,40.7143
2022-12-03T10:52:29.880Z,39
2022-12-03T10:53:29.901Z,41.6429
2022-12-03T10:54:29.936Z,39.8571
2022-12-03T10:55:29.970Z,41.2143
2022-12-03T10:56:30.007Z,40.1429
2022-12-03T10:57:30.026Z,41.8571
2022-12-03T10:58:30.065Z,39.5
2022-12-03T10:59:30.078Z,40.6429
2022-12-03T11:00:30.117Z,41.8571
2022-12-03T11:01:30.187Z,40.9286
2022-12-03T11:02:30.180Z,41.5
2022-12-03T11:03:30.344Z,41.4286
2022-12-03T11:04:30.241Z,40.7143
2022-12-03T11:05:30.284Z,43
2022-12-03T11:06:30.301Z,41
2022-12-03T11:07:30.394Z,38.8571
2022-12-03T11:08:30.359Z,40.1429
2022-12-03T11:09:30.397Z,40.7143
2022-12-03T11:10:30.434Z,39.5
2022-12-03T11:11:30.472Z,41.2143
2022-12-03T11:12:30.497Z,41
2022-12-03T11:13:30.530Z,40.8571
2022-12-03T11:14:30.548Z,41.2143
2022-12-03T11:15:30.590Z,40.5
2022-12-03T11:16:30.708Z,42.2143
2022-12-03T11:17:30.684Z,42.6429
2022-12-03T11:18:30.686Z,40.6429
2022-12-03T11:19:30.715Z,43.8571
2022-12-03T11:20:30.753Z,42.3571
2022-12-03T11:21:30.774Z,41.7143
2022-12-03T11:22:30.829Z,40.9286
2022-12-03T11:23:30.880Z,41.2143
2022-12-03T11:24:30.906Z,40.2143
2022-12-03T11:25:30.933Z,41.2143
2022-12-03T11:26:30.968Z,39.8571
2022-12-03T11:27:30.993Z,41.3571
2022-12-03T11:28:31.035Z,40.1429
2022-12-03T11:29:31.056Z,39.7143
2022-12-03T11:30:31.081Z,39.5
2022-12-03T11:31:31.171Z,42.1429
2022-12-03T11:32:32.134Z,40.4286
2022-12-03T11:33:31.171Z,41.7143
2022-12-03T11:34:31.202Z,42.4286
2022-12-03T11:35:31.230Z,40
2022-12-03T11:36:53.996Z,41
2022-12-03T11:37:31.293Z,41
2022-12-03T11:38:31.328Z,41.9286
2022-12-03T11:39:31.354Z,40.3571
2022-12-03T11:40:36.147Z,40.4286
2022-12-03T11:41:31.423Z,40.5
2022-12-03T11:42:31.456Z,41.3571
2022-12-03T11:43:31.489Z,40.6429
2022-12-03T11:44:31.515Z,41.2143
2022-12-03T11:45:31.539Z,40
2022-12-03T11:46:31.666Z,41
2022-12-03T11:47:31.607Z,39.5
2022-12-03T11:48:31.633Z,39.3571
2022-12-03T11:49:31.683Z,37.4286
2022-12-03T11:50:38.981Z,38.9286
2022-12-03T11:51:31.732Z,39.4286
2022-12-03T11:52:31.778Z,41.4286
2022-12-03T11:53:31.806Z,39.7143
2022-12-03T11:54:31.822Z,41
2022-12-03T11:55:31.861Z,39
2022-12-03T11:56:31.887Z,39.2143
2022-12-03T11:57:31.923Z,40.5
2022-12-03T11:58:31.945Z,40
2022-12-03T11:59:31.978Z,39.6429
2022-12-03T12:00:32.007Z,40.4286
2022-12-03T12:01:36.896Z,39.5
2022-12-03T12:02:32.136Z,39.4286
2022-12-03T12:03:33.461Z,39.4286
2022-12-03T12:04:32.182Z,39.7143
2022-12-03T12:05:32.202Z,39.8571
2022-12-03T12:06:32.241Z,38
2022-12-03T12:07:32.285Z,39.4286
2022-12-03T12:08:32.302Z,39.3571
2022-12-03T12:09:32.331Z,38.3571
2022-12-03T12:10:32.437Z,39.1429
2022-12-03T12:11:32.464Z,39.5
2022-12-03T12:12:32.491Z,40.4286
2022-12-03T12:13:11.841Z,40.4286
2022-12-03T12:14:11.876Z,40.2143
2022-12-03T12:15:10.815Z,40.4286
2022-12-03T12:16:10.907Z,40.9286
2022-12-03T12:16:56.488Z,39.8571
2022-12-03T12:17:56.365Z,39.3571
2022-12-03T12:18:56.444Z,41.6429
2022-12-03T12:19:56.667Z,39.7143
2022-12-03T12:20:07.974Z,40.2143
2022-12-03T12:21:08.055Z,39.9286
2022-12-03T12:21:39.669Z,40.2143
2022-12-03T12:22:39.696Z,39.2143
2022-12-03T12:23:39.721Z,38.9286
2022-12-03T12:24:39.757Z,39.3571
2022-12-03T12:25:39.798Z,40.6429
2022-12-03T12:26:39.823Z,39.7143